sensor_id;sensor_type;location;lat;lon;timestamp;pressure;altitude;pressure_sealevel;temperature;humidity
42335;BME280;27986;42.700;24.178;2023-01-31T06:33:46;93275.16;;;-0.07;74.99
42335;BME280;27986;42.700;24.178;2023-01-31T06:36:11;93280.00;;;-0.17;74.60
42335;BME280;27986;42.700;24.178;2023-01-31T06:38:36;93282.78;;;-0.41;77.74
42335;BME280;27986;42.700;24.178;2023-01-31T06:41:02;93239.31;;;-0.11;75.75
42335;BME280;27986;42.700;24.178;2023-01-31T06:43:27;93264.59;;;0.06;74.18
42335;BME280;27986;42.700;24.178;2023-01-31T06:45:53;93272.56;;;0.28;72.87
42335;BME280;27986;42.700;24.178;2023-01-31T06:48:18;93288.41;;;-0.35;75.97
42335;BME280;27986;42.700;24.178;2023-01-31T06:50:45;93264.19;;;-0.02;73.17
42335;BME280;27986;42.700;24.178;2023-01-31T06:53:10;93274.97;;;0.35;70.69
42335;BME280;27986;42.700;24.178;2023-01-31T06:55:37;93290.28;;;0.07;73.78
42335;BME280;27986;42.700;24.178;2023-01-31T06:58:02;93289.16;;;0.13;72.89
42335;BME280;27986;42.700;24.178;2023-01-31T07:00:28;93286.69;;;0.15;73.52
42335;BME280;27986;42.700;24.178;2023-01-31T07:02:53;93294.09;;;-0.06;73.73
42335;BME280;27986;42.700;24.178;2023-01-31T07:05:20;93252.53;;;-0.30;72.25
42335;BME280;27986;42.700;24.178;2023-01-31T07:07:46;93270.81;;;0.16;72.16
42335;BME280;27986;42.700;24.178;2023-01-31T07:10:12;93268.16;;;0.21;71.26
42335;BME280;27986;42.700;24.178;2023-01-31T07:12:38;93254.34;;;0.51;69.92
42335;BME280;27986;42.700;24.178;2023-01-31T07:15:04;93275.38;;;0.57;67.73
42335;BME280;27986;42.700;24.178;2023-01-31T07:17:30;93286.34;;;0.37;70.05
42335;BME280;27986;42.700;24.178;2023-01-31T07:19:55;93281.13;;;0.15;70.66
42335;BME280;27986;42.700;24.178;2023-01-31T07:22:20;93285.00;;;0.33;70.99
42335;BME280;27986;42.700;24.178;2023-01-31T07:24:47;93294.97;;;0.54;70.58
42335;BME280;27986;42.700;24.178;2023-01-31T07:27:14;93286.84;;;0.36;70.22
42335;BME280;27986;42.700;24.178;2023-01-31T07:29:40;93303.63;;;0.32;71.38
42335;BME280;27986;42.700;24.178;2023-01-31T07:32:05;93318.91;;;0.51;69.96
42335;BME280;27986;42.700;24.178;2023-01-31T07:34:31;93293.00;;;0.69;69.86
42335;BME280;27986;42.700;24.178;2023-01-31T07:36:56;93307.13;;;1.01;67.05
42335;BME280;27986;42.700;24.178;2023-01-31T07:39:22;93308.00;;;1.07;66.30
42335;BME280;27986;42.700;24.178;2023-01-31T07:41:48;93302.09;;;1.49;65.38
42335;BME280;27986;42.700;24.178;2023-01-31T07:44:14;93302.31;;;1.31;65.23
42335;BME280;27986;42.700;24.178;2023-01-31T07:46:40;93310.88;;;0.83;67.09
42335;BME280;27986;42.700;24.178;2023-01-31T07:49:07;93318.53;;;0.73;68.52
42335;BME280;27986;42.700;24.178;2023-01-31T07:51:33;93297.00;;;0.68;68.05
42335;BME280;27986;42.700;24.178;2023-01-31T07:54:00;93295.16;;;1.24;66.26
42335;BME280;27986;42.700;24.178;2023-01-31T07:56:26;93297.16;;;1.09;66.12
42335;BME280;27986;42.700;24.178;2023-01-31T07:58:51;93301.56;;;1.30;67.10
42335;BME280;27986;42.700;24.178;2023-01-31T08:01:22;93319.03;;;1.01;67.24
42335;BME280;27986;42.700;24.178;2023-01-31T08:04:07;93329.91;;;0.75;69.94
42335;BME280;27986;42.700;24.178;2023-01-31T08:06:33;93317.94;;;0.84;70.03
42335;BME280;27986;42.700;24.178;2023-01-31T08:09:00;93330.91;;;1.02;68.82
42335;BME280;27986;42.700;24.178;2023-01-31T08:11:25;93316.53;;;0.89;70.25
42335;BME280;27986;42.700;24.178;2023-01-31T08:13:51;93345.34;;;1.06;67.43
42335;BME280;27986;42.700;24.178;2023-01-31T08:16:17;93342.06;;;0.78;72.73
42335;BME280;27986;42.700;24.178;2023-01-31T08:18:44;93305.03;;;0.96;71.30
42335;BME280;27986;42.700;24.178;2023-01-31T08:21:11;93346.22;;;1.12;67.50
42335;BME280;27986;42.700;24.178;2023-01-31T08:23:37;93343.13;;;1.39;68.08
42335;BME280;27986;42.700;24.178;2023-01-31T08:26:10;93350.44;;;1.72;67.12
42335;BME280;27986;42.700;24.178;2023-01-31T08:28:36;93345.13;;;1.39;67.68
42335;BME280;27986;42.700;24.178;2023-01-31T08:31:03;93344.47;;;1.44;66.56
42335;BME280;27986;42.700;24.178;2023-01-31T08:33:29;93342.50;;;1.65;63.34
42335;BME280;27986;42.700;24.178;2023-01-31T08:35:54;93353.13;;;1.66;60.84
42335;BME280;27986;42.700;24.178;2023-01-31T08:38:20;93373.22;;;1.76;60.77
42335;BME280;27986;42.700;24.178;2023-01-31T08:40:45;93350.47;;;1.42;61.88
42335;BME280;27986;42.700;24.178;2023-01-31T08:43:11;93332.38;;;1.32;61.18
42335;BME280;27986;42.700;24.178;2023-01-31T08:45:36;93359.53;;;1.73;62.33
42335;BME280;27986;42.700;24.178;2023-01-31T08:48:02;93345.16;;;1.74;61.50
42335;BME280;27986;42.700;24.178;2023-01-31T08:50:29;93376.94;;;1.88;61.12
42335;BME280;27986;42.700;24.178;2023-01-31T08:52:58;93374.81;;;1.97;62.53
42335;BME280;27986;42.700;24.178;2023-01-31T08:55:25;93375.16;;;2.05;60.48
42335;BME280;27986;42.700;24.178;2023-01-31T08:57:51;93369.34;;;2.03;62.04
42335;BME280;27986;42.700;24.178;2023-01-31T09:00:18;93370.09;;;1.68;66.92
42335;BME280;27986;42.700;24.178;2023-01-31T09:02:50;93366.19;;;1.95;64.40
42335;BME280;27986;42.700;24.178;2023-01-31T09:05:16;93377.59;;;2.18;62.84
42335;BME280;27986;42.700;24.178;2023-01-31T09:07:41;93374.78;;;2.33;63.01
42335;BME280;27986;42.700;24.178;2023-01-31T09:10:07;93358.84;;;2.13;61.38
42335;BME280;27986;42.700;24.178;2023-01-31T09:12:33;93356.31;;;1.94;61.64
42335;BME280;27986;42.700;24.178;2023-01-31T09:15:00;93377.63;;;1.83;64.28
42335;BME280;27986;42.700;24.178;2023-01-31T09:17:25;93365.75;;;1.67;65.98
42335;BME280;27986;42.700;24.178;2023-01-31T09:19:51;93385.59;;;1.75;65.49
42335;BME280;27986;42.700;24.178;2023-01-31T09:22:16;93374.09;;;1.67;64.62
42335;BME280;27986;42.700;24.178;2023-01-31T09:24:42;93346.63;;;1.55;68.58
42335;BME280;27986;42.700;24.178;2023-01-31T09:27:07;93380.84;;;1.61;69.90
42335;BME280;27986;42.700;24.178;2023-01-31T09:29:33;93372.50;;;1.46;71.60
42335;BME280;27986;42.700;24.178;2023-01-31T09:31:58;93373.75;;;1.60;71.39
42335;BME280;27986;42.700;24.178;2023-01-31T09:34:24;93371.50;;;1.79;69.94
42335;BME280;27986;42.700;24.178;2023-01-31T09:36:49;93374.53;;;1.95;68.82
42335;BME280;27986;42.700;24.178;2023-01-31T09:39:15;93370.03;;;1.83;69.51
42335;BME280;27986;42.700;24.178;2023-01-31T09:41:49;93378.88;;;1.82;69.63
42335;BME280;27986;42.700;24.178;2023-01-31T09:44:24;93363.41;;;1.95;64.31
42335;BME280;27986;42.700;24.178;2023-01-31T09:47:21;93359.88;;;2.15;61.89
42335;BME280;27986;42.700;24.178;2023-01-31T09:52:24;93365.53;;;2.21;60.48
42335;BME280;27986;42.700;24.178;2023-01-31T09:54:52;93350.00;;;2.35;61.23
42335;BME280;27986;42.700;24.178;2023-01-31T09:57:28;93334.53;;;2.28;59.86
42335;BME280;27986;42.700;24.178;2023-01-31T10:05:42;93344.72;;;2.16;61.56
42335;BME280;27986;42.700;24.178;2023-01-31T10:10:57;93335.63;;;2.36;61.30
42335;BME280;27986;42.700;24.178;2023-01-31T10:13:33;93340.00;;;2.22;60.80
42335;BME280;27986;42.700;24.178;2023-01-31T10:18:50;93319.09;;;1.72;62.97
42335;BME280;27986;42.700;24.178;2023-01-31T10:21:21;93304.28;;;1.60;61.90
42335;BME280;27986;42.700;24.178;2023-01-31T10:24:03;93329.53;;;1.77;62.64
42335;BME280;27986;42.700;24.178;2023-01-31T10:26:33;93319.75;;;1.81;63.54
42335;BME280;27986;42.700;24.178;2023-01-31T10:29:12;93285.53;;;1.75;63.01
42335;BME280;27986;42.700;24.178;2023-01-31T10:34:25;93293.44;;;1.62;64.66
42335;BME280;27986;42.700;24.178;2023-01-31T10:37:17;93291.94;;;1.61;63.81
42335;BME280;27986;42.700;24.178;2023-01-31T10:39:49;93296.53;;;1.49;64.37
42335;BME280;27986;42.700;24.178;2023-01-31T10:42:32;93300.13;;;1.70;64.59
42335;BME280;27986;42.700;24.178;2023-01-31T10:47:34;93286.56;;;1.57;64.43
42335;BME280;27986;42.700;24.178;2023-01-31T10:50:01;93286.78;;;1.54;66.14
42335;BME280;27986;42.700;24.178;2023-01-31T10:58:13;93277.06;;;1.84;63.09
42335;BME280;27986;42.700;24.178;2023-01-31T11:00:39;93283.81;;;1.78;62.47
42335;BME280;27986;42.700;24.178;2023-01-31T11:03:05;93294.19;;;1.77;63.50
42335;BME280;27986;42.700;24.178;2023-01-31T11:05:30;93260.78;;;1.57;64.07
42335;BME280;27986;42.700;24.178;2023-01-31T11:08:02;93286.59;;;1.78;65.01
42335;BME280;27986;42.700;24.178;2023-01-31T11:10:31;93274.28;;;1.84;64.82
42335;BME280;27986;42.700;24.178;2023-01-31T11:13:02;93275.03;;;1.85;65.43
42335;BME280;27986;42.700;24.178;2023-01-31T11:15:39;93283.81;;;1.78;66.14
42335;BME280;27986;42.700;24.178;2023-01-31T11:18:13;93283.38;;;1.85;65.92
42335;BME280;27986;42.700;24.178;2023-01-31T11:20:45;93288.75;;;1.88;68.34
42335;BME280;27986;42.700;24.178;2023-01-31T11:23:16;93282.72;;;1.90;66.11
42335;BME280;27986;42.700;24.178;2023-01-31T11:25:47;93302.09;;;1.84;63.23
42335;BME280;27986;42.700;24.178;2023-01-31T11:28:32;93299.47;;;1.95;64.16
42335;BME280;27986;42.700;24.178;2023-01-31T11:30:58;93282.88;;;1.66;66.59
42335;BME280;27986;42.700;24.178;2023-01-31T11:33:41;93312.56;;;1.75;66.70
42335;BME280;27986;42.700;24.178;2023-01-31T11:36:11;93292.84;;;1.73;66.76
42335;BME280;27986;42.700;24.178;2023-01-31T11:38:37;93298.13;;;1.91;65.63
42335;BME280;27986;42.700;24.178;2023-01-31T11:41:35;93309.75;;;2.10;64.68
42335;BME280;27986;42.700;24.178;2023-01-31T11:46:56;93310.19;;;2.03;66.32
42335;BME280;27986;42.700;24.178;2023-01-31T11:49:51;93315.88;;;2.14;61.94
42335;BME280;27986;42.700;24.178;2023-01-31T11:52:20;93292.53;;;2.06;62.27
42335;BME280;27986;42.700;24.178;2023-01-31T11:54:54;93315.66;;;2.17;61.84
42335;BME280;27986;42.700;24.178;2023-01-31T11:57:29;93318.09;;;2.30;61.21
42335;BME280;27986;42.700;24.178;2023-01-31T11:59:57;93306.91;;;2.24;59.94
42335;BME280;27986;42.700;24.178;2023-01-31T12:02:43;93310.25;;;2.29;60.46
42335;BME280;27986;42.700;24.178;2023-01-31T12:05:12;93310.94;;;2.03;60.15
42335;BME280;27986;42.700;24.178;2023-01-31T12:07:43;93319.28;;;2.03;61.17
42335;BME280;27986;42.700;24.178;2023-01-31T12:10:30;93290.97;;;1.84;63.10
42335;BME280;27986;42.700;24.178;2023-01-31T12:13:42;93316.56;;;2.29;63.26
42335;BME280;27986;42.700;24.178;2023-01-31T12:16:10;93320.97;;;2.36;63.47
42335;BME280;27986;42.700;24.178;2023-01-31T12:25:21;93319.34;;;1.88;65.40
42335;BME280;27986;42.700;24.178;2023-01-31T12:39:02;93340.34;;;1.75;67.69
42335;BME280;27986;42.700;24.178;2023-01-31T12:44:45;93352.56;;;1.97;66.78
42335;BME280;27986;42.700;24.178;2023-01-31T13:01:04;93335.25;;;1.53;79.69
42335;BME280;27986;42.700;24.178;2023-01-31T13:03:57;93347.50;;;1.46;82.35
42335;BME280;27986;42.700;24.178;2023-01-31T13:06:42;93328.78;;;1.11;83.24
42335;BME280;27986;42.700;24.178;2023-01-31T13:09:19;93353.75;;;0.97;86.91
42335;BME280;27986;42.700;24.178;2023-01-31T13:14:19;93355.69;;;1.20;84.99
42335;BME280;27986;42.700;24.178;2023-01-31T13:16:49;93358.25;;;1.38;85.41
42335;BME280;27986;42.700;24.178;2023-01-31T13:22:33;93363.34;;;1.75;83.31
42335;BME280;27986;42.700;24.178;2023-01-31T13:25:19;93355.06;;;1.95;82.47
42335;BME280;27986;42.700;24.178;2023-01-31T13:27:56;93346.69;;;2.10;79.82
42335;BME280;27986;42.700;24.178;2023-01-31T13:30:32;93371.66;;;1.90;80.25
42335;BME280;27986;42.700;24.178;2023-01-31T13:33:11;93364.00;;;2.20;79.62
42335;BME280;27986;42.700;24.178;2023-01-31T13:35:42;93375.53;;;2.13;77.80
42335;BME280;27986;42.700;24.178;2023-01-31T13:38:14;93380.50;;;2.09;79.47
42335;BME280;27986;42.700;24.178;2023-01-31T13:40:50;93377.28;;;2.10;79.62
42335;BME280;27986;42.700;24.178;2023-01-31T13:43:17;93377.63;;;2.38;79.51
42335;BME280;27986;42.700;24.178;2023-01-31T13:45:48;93383.41;;;2.55;78.79
42335;BME280;27986;42.700;24.178;2023-01-31T13:53:31;93357.38;;;2.17;77.92
42335;BME280;27986;42.700;24.178;2023-01-31T13:55:59;93361.03;;;1.88;83.18
42335;BME280;27986;42.700;24.178;2023-01-31T13:58:33;93352.31;;;1.81;83.54
42335;BME280;27986;42.700;24.178;2023-01-31T14:01:11;93383.06;;;1.92;84.68
42335;BME280;27986;42.700;24.178;2023-01-31T14:11:51;93386.72;;;1.19;94.01
42335;BME280;27986;42.700;24.178;2023-01-31T14:27:21;93393.28;;;0.77;98.94
42335;BME280;27986;42.700;24.178;2023-01-31T14:29:55;93391.50;;;0.65;100.00
42335;BME280;27986;42.700;24.178;2023-01-31T14:34:56;93369.59;;;0.67;98.54
42335;BME280;27986;42.700;24.178;2023-01-31T14:45:58;93408.25;;;1.38;77.11
42335;BME280;27986;42.700;24.178;2023-01-31T14:57:20;93425.47;;;1.42;81.95
42335;BME280;27986;42.700;24.178;2023-01-31T14:59:53;93435.72;;;1.66;75.10
42335;BME280;27986;42.700;24.178;2023-01-31T15:05:03;93440.44;;;1.45;72.84
42335;BME280;27986;42.700;24.178;2023-01-31T15:07:30;93427.59;;;1.18;72.21
42335;BME280;27986;42.700;24.178;2023-01-31T15:09:56;93421.25;;;1.32;71.00
42335;BME280;27986;42.700;24.178;2023-01-31T15:12:51;93438.69;;;1.48;70.33
42335;BME280;27986;42.700;24.178;2023-01-31T15:15:37;93435.66;;;1.46;71.91
42335;BME280;27986;42.700;24.178;2023-01-31T15:18:29;93449.16;;;1.53;71.81
42335;BME280;27986;42.700;24.178;2023-01-31T15:20:58;93444.84;;;1.52;71.23
42335;BME280;27986;42.700;24.178;2023-01-31T15:23:27;93461.97;;;1.21;71.93
42335;BME280;27986;42.700;24.178;2023-01-31T15:25:55;93462.91;;;1.18;73.86
42335;BME280;27986;42.700;24.178;2023-01-31T15:28:25;93481.03;;;1.42;75.04
42335;BME280;27986;42.700;24.178;2023-01-31T15:30:55;93482.13;;;1.60;74.43
42335;BME280;27986;42.700;24.178;2023-01-31T15:35:57;93480.94;;;1.66;71.79
42335;BME280;27986;42.700;24.178;2023-01-31T15:41:18;93487.66;;;1.45;72.38
42335;BME280;27986;42.700;24.178;2023-01-31T15:43:45;93490.59;;;1.41;71.98
42335;BME280;27986;42.700;24.178;2023-01-31T15:46:26;93487.16;;;1.32;73.54
42335;BME280;27986;42.700;24.178;2023-01-31T15:48:52;93490.63;;;1.27;73.14
42335;BME280;27986;42.700;24.178;2023-01-31T15:51:19;93490.34;;;1.54;74.17
42335;BME280;27986;42.700;24.178;2023-01-31T15:53:44;93499.09;;;1.77;72.74
42335;BME280;27986;42.700;24.178;2023-01-31T15:56:19;93483.72;;;1.96;73.34
42335;BME280;27986;42.700;24.178;2023-01-31T15:58:49;93496.47;;;2.03;71.22
42335;BME280;27986;42.700;24.178;2023-01-31T16:01:15;93500.31;;;2.05;71.44
42335;BME280;27986;42.700;24.178;2023-01-31T16:03:53;93501.56;;;2.04;69.21
42335;BME280;27986;42.700;24.178;2023-01-31T16:06:37;93501.34;;;1.93;68.98
42335;BME280;27986;42.700;24.178;2023-01-31T16:09:05;93498.66;;;2.13;68.04
42335;BME280;27986;42.700;24.178;2023-01-31T16:11:32;93506.13;;;2.22;68.00
42335;BME280;27986;42.700;24.178;2023-01-31T16:14:02;93514.50;;;2.42;67.60
42335;BME280;27986;42.700;24.178;2023-01-31T16:16:29;93514.41;;;2.51;67.44
42335;BME280;27986;42.700;24.178;2023-01-31T16:18:58;93518.47;;;2.71;67.49
42335;BME280;27986;42.700;24.178;2023-01-31T16:21:42;93528.13;;;2.55;68.79
42335;BME280;27986;42.700;24.178;2023-01-31T16:24:15;93526.88;;;2.56;66.54
42335;BME280;27986;42.700;24.178;2023-01-31T16:27:05;93531.03;;;3.01;65.20
42335;BME280;27986;42.700;24.178;2023-01-31T16:29:42;93517.66;;;2.85;65.27
42335;BME280;27986;42.700;24.178;2023-01-31T16:32:29;93516.25;;;2.75;65.04
42335;BME280;27986;42.700;24.178;2023-01-31T16:34:59;93535.59;;;2.64;66.44
42335;BME280;27986;42.700;24.178;2023-01-31T16:37:43;93548.34;;;2.20;67.05
42335;BME280;27986;42.700;24.178;2023-01-31T16:40:25;93541.44;;;1.72;69.83
42335;BME280;27986;42.700;24.178;2023-01-31T16:45:33;93558.44;;;1.50;70.71
42335;BME280;27986;42.700;24.178;2023-01-31T16:48:18;93544.91;;;1.42;70.58
42335;BME280;27986;42.700;24.178;2023-01-31T16:50:45;93557.59;;;1.44;71.59
42335;BME280;27986;42.700;24.178;2023-01-31T16:53:23;93566.66;;;1.29;73.28
42335;BME280;27986;42.700;24.178;2023-01-31T16:56:19;93564.03;;;1.26;74.63
42335;BME280;27986;42.700;24.178;2023-01-31T16:58:54;93565.63;;;1.18;75.65
42335;BME280;27986;42.700;24.178;2023-01-31T17:01:22;93574.75;;;1.18;75.66
42335;BME280;27986;42.700;24.178;2023-01-31T17:06:36;93578.38;;;1.09;77.03
42335;BME280;27986;42.700;24.178;2023-01-31T17:09:02;93557.69;;;0.87;77.30
42335;BME280;27986;42.700;24.178;2023-01-31T17:11:30;93579.13;;;1.10;76.13
42335;BME280;27986;42.700;24.178;2023-01-31T17:13:56;93581.91;;;1.10;74.88
42335;BME280;27986;42.700;24.178;2023-01-31T17:16:22;93597.25;;;0.96;75.31
42335;BME280;27986;42.700;24.178;2023-01-31T17:18:53;93574.06;;;0.84;75.57
42335;BME280;27986;42.700;24.178;2023-01-31T17:21:23;93582.50;;;0.90;75.06
42335;BME280;27986;42.700;24.178;2023-01-31T17:23:50;93574.34;;;0.87;75.81
42335;BME280;27986;42.700;24.178;2023-01-31T17:26:17;93577.47;;;1.03;75.10
42335;BME280;27986;42.700;24.178;2023-01-31T17:28:43;93593.31;;;1.36;74.97
42335;BME280;27986;42.700;24.178;2023-01-31T17:31:16;93583.88;;;1.33;73.14
42335;BME280;27986;42.700;24.178;2023-01-31T17:33:42;93604.69;;;1.38;73.65
42335;BME280;27986;42.700;24.178;2023-01-31T17:36:08;93596.16;;;1.27;74.07
42335;BME280;27986;42.700;24.178;2023-01-31T17:38:34;93574.63;;;1.12;74.55
42335;BME280;27986;42.700;24.178;2023-01-31T17:40:59;93594.44;;;1.05;75.44
42335;BME280;27986;42.700;24.178;2023-01-31T17:43:25;93600.84;;;0.88;76.21
42335;BME280;27986;42.700;24.178;2023-01-31T17:45:50;93613.81;;;1.15;75.34
42335;BME280;27986;42.700;24.178;2023-01-31T17:48:16;93607.59;;;1.20;74.70
42335;BME280;27986;42.700;24.178;2023-01-31T17:50:43;93614.84;;;1.17;73.33
42335;BME280;27986;42.700;24.178;2023-01-31T17:53:13;93604.00;;;1.04;73.72
42335;BME280;27986;42.700;24.178;2023-01-31T17:55:41;93600.53;;;1.19;73.20
42335;BME280;27986;42.700;24.178;2023-01-31T17:58:11;93593.94;;;1.31;73.87
42335;BME280;27986;42.700;24.178;2023-01-31T18:00:37;93618.59;;;1.38;74.59
42335;BME280;27986;42.700;24.178;2023-01-31T18:03:02;93617.28;;;1.24;75.00
42335;BME280;27986;42.700;24.178;2023-01-31T18:05:28;93603.22;;;1.28;75.41
42335;BME280;27986;42.700;24.178;2023-01-31T18:07:53;93610.03;;;1.27;76.13
42335;BME280;27986;42.700;24.178;2023-01-31T18:10:19;93624.13;;;1.14;76.18
42335;BME280;27986;42.700;24.178;2023-01-31T18:12:44;93622.06;;;1.00;74.73
42335;BME280;27986;42.700;24.178;2023-01-31T18:15:10;93627.56;;;1.09;76.42
42335;BME280;27986;42.700;24.178;2023-01-31T18:17:36;93620.50;;;0.75;77.53
42335;BME280;27986;42.700;24.178;2023-01-31T18:20:03;93631.25;;;0.82;76.67
42335;BME280;27986;42.700;24.178;2023-01-31T18:22:28;93636.75;;;0.91;76.26
42335;BME280;27986;42.700;24.178;2023-01-31T18:24:54;93616.94;;;0.74;78.22
42335;BME280;27986;42.700;24.178;2023-01-31T18:27:19;93646.94;;;0.94;74.62
42335;BME280;27986;42.700;24.178;2023-01-31T18:29:45;93644.41;;;0.72;75.00
42335;BME280;27986;42.700;24.178;2023-01-31T18:32:10;93640.34;;;0.82;74.31
42335;BME280;27986;42.700;24.178;2023-01-31T18:34:36;93659.09;;;0.97;76.26
42335;BME280;27986;42.700;24.178;2023-01-31T18:37:05;93646.38;;;0.81;74.76
42335;BME280;27986;42.700;24.178;2023-01-31T18:39:34;93653.34;;;0.76;73.58
42335;BME280;27986;42.700;24.178;2023-01-31T18:42:00;93644.59;;;0.69;74.82
42335;BME280;27986;42.700;24.178;2023-01-31T18:44:26;93660.69;;;0.89;75.60
42335;BME280;27986;42.700;24.178;2023-01-31T18:46:53;93668.19;;;0.97;74.89
42335;BME280;27986;42.700;24.178;2023-01-31T18:49:19;93649.72;;;0.94;74.92
42335;BME280;27986;42.700;24.178;2023-01-31T18:51:44;93656.50;;;0.93;73.77
42335;BME280;27986;42.700;24.178;2023-01-31T18:54:11;93642.78;;;0.90;74.00
42335;BME280;27986;42.700;24.178;2023-01-31T18:56:36;93649.56;;;0.89;72.30
42335;BME280;27986;42.700;24.178;2023-01-31T18:59:02;93669.19;;;1.09;73.02
42335;BME280;27986;42.700;24.178;2023-01-31T19:01:27;93662.38;;;1.19;72.02
42335;BME280;27986;42.700;24.178;2023-01-31T19:03:54;93663.63;;;1.18;72.73
42335;BME280;27986;42.700;24.178;2023-01-31T19:06:29;93667.94;;;1.19;72.21
42335;BME280;27986;42.700;24.178;2023-01-31T19:08:59;93659.03;;;1.06;73.39
42335;BME280;27986;42.700;24.178;2023-01-31T19:11:27;93643.84;;;0.92;73.25
42335;BME280;27986;42.700;24.178;2023-01-31T19:13:53;93665.28;;;0.92;74.84
42335;BME280;27986;42.700;24.178;2023-01-31T19:16:21;93668.81;;;0.92;73.67
42335;BME280;27986;42.700;24.178;2023-01-31T19:18:48;93662.50;;;0.92;73.56
42335;BME280;27986;42.700;24.178;2023-01-31T19:21:19;93651.31;;;1.10;73.18
42335;BME280;27986;42.700;24.178;2023-01-31T19:23:45;93672.78;;;1.00;72.59
42335;BME280;27986;42.700;24.178;2023-01-31T19:26:12;93669.34;;;1.15;72.12
42335;BME280;27986;42.700;24.178;2023-01-31T19:28:38;93674.00;;;1.08;72.93
42335;BME280;27986;42.700;24.178;2023-01-31T19:31:10;93665.66;;;1.08;74.65
42335;BME280;27986;42.700;24.178;2023-01-31T19:33:36;93653.16;;;1.13;73.85
42335;BME280;27986;42.700;24.178;2023-01-31T19:36:11;93663.31;;;1.16;72.77
42335;BME280;27986;42.700;24.178;2023-01-31T19:38:37;93665.28;;;0.92;73.89
42335;BME280;27986;42.700;24.178;2023-01-31T19:41:11;93635.47;;;0.77;75.76
42335;BME280;27986;42.700;24.178;2023-01-31T19:43:38;93673.97;;;0.75;74.49
42335;BME280;27986;42.700;24.178;2023-01-31T19:46:04;93659.97;;;0.79;74.57
42335;BME280;27986;42.700;24.178;2023-01-31T19:48:29;93677.34;;;0.89;75.79
42335;BME280;27986;42.700;24.178;2023-01-31T19:50:56;93667.19;;;0.86;75.84
42335;BME280;27986;42.700;24.178;2023-01-31T19:53:22;93676.78;;;0.66;75.79
42335;BME280;27986;42.700;24.178;2023-01-31T19:55:49;93687.06;;;0.84;75.07
42335;BME280;27986;42.700;24.178;2023-01-31T19:58:14;93673.78;;;0.88;74.37
42335;BME280;27986;42.700;24.178;2023-01-31T20:00:39;93683.13;;;1.00;74.43
42335;BME280;27986;42.700;24.178;2023-01-31T20:03:05;93674.59;;;0.79;75.28
42335;BME280;27986;42.700;24.178;2023-01-31T20:05:31;93696.63;;;0.83;74.92
42335;BME280;27986;42.700;24.178;2023-01-31T20:07:56;93680.84;;;0.56;74.73
42335;BME280;27986;42.700;24.178;2023-01-31T20:10:22;93698.97;;;0.75;74.43
42335;BME280;27986;42.700;24.178;2023-01-31T20:12:47;93712.50;;;0.82;73.62
42335;BME280;27986;42.700;24.178;2023-01-31T20:15:13;93704.06;;;0.77;73.29
42335;BME280;27986;42.700;24.178;2023-01-31T20:17:38;93691.31;;;0.61;74.56
42335;BME280;27986;42.700;24.178;2023-01-31T20:20:04;93705.75;;;0.74;74.13
42335;BME280;27986;42.700;24.178;2023-01-31T20:22:30;93712.97;;;0.81;73.37
42335;BME280;27986;42.700;24.178;2023-01-31T20:24:56;93710.31;;;0.96;74.47
42335;BME280;27986;42.700;24.178;2023-01-31T20:27:23;93714.22;;;0.80;77.20
42335;BME280;27986;42.700;24.178;2023-01-31T20:29:49;93708.97;;;0.82;76.48
42335;BME280;27986;42.700;24.178;2023-01-31T20:32:14;93692.53;;;0.69;77.79
42335;BME280;27986;42.700;24.178;2023-01-31T20:34:42;93711.22;;;0.60;79.48
42335;BME280;27986;42.700;24.178;2023-01-31T20:37:07;93723.38;;;0.62;80.69
42335;BME280;27986;42.700;24.178;2023-01-31T20:39:33;93697.19;;;0.54;79.94
42335;BME280;27986;42.700;24.178;2023-01-31T20:41:58;93720.88;;;0.73;81.35
42335;BME280;27986;42.700;24.178;2023-01-31T20:44:24;93724.88;;;0.72;83.61
42335;BME280;27986;42.700;24.178;2023-01-31T20:46:49;93721.84;;;0.61;86.10
42335;BME280;27986;42.700;24.178;2023-01-31T20:49:15;93723.28;;;0.38;87.18
42335;BME280;27986;42.700;24.178;2023-01-31T20:51:40;93720.81;;;0.22;90.50
42335;BME280;27986;42.700;24.178;2023-01-31T20:54:06;93701.28;;;-0.02;91.24
42335;BME280;27986;42.700;24.178;2023-01-31T20:56:31;93724.66;;;0.43;88.65
42335;BME280;27986;42.700;24.178;2023-01-31T20:58:57;93725.25;;;0.47;88.59
42335;BME280;27986;42.700;24.178;2023-01-31T21:01:22;93726.84;;;0.81;88.74
42335;BME280;27986;42.700;24.178;2023-01-31T21:03:48;93725.13;;;0.93;88.25
42335;BME280;27986;42.700;24.178;2023-01-31T21:06:13;93714.13;;;0.98;86.77
42335;BME280;27986;42.700;24.178;2023-01-31T21:08:39;93732.44;;;1.14;84.59
42335;BME280;27986;42.700;24.178;2023-01-31T21:11:09;93742.00;;;1.46;85.11
42335;BME280;27986;42.700;24.178;2023-01-31T21:13:35;93726.38;;;1.49;79.75
42335;BME280;27986;42.700;24.178;2023-01-31T21:16:03;93730.41;;;1.72;76.86
42335;BME280;27986;42.700;24.178;2023-01-31T21:18:31;93740.56;;;1.98;75.88
42335;BME280;27986;42.700;24.178;2023-01-31T21:20:57;93738.69;;;2.05;74.42
42335;BME280;27986;42.700;24.178;2023-01-31T21:23:24;93720.53;;;1.47;73.88
42335;BME280;27986;42.700;24.178;2023-01-31T21:25:49;93730.56;;;1.20;72.87
42335;BME280;27986;42.700;24.178;2023-01-31T21:28:15;93708.66;;;0.80;72.06
42335;BME280;27986;42.700;24.178;2023-01-31T21:30:40;93752.31;;;1.22;72.92
42335;BME280;27986;42.700;24.178;2023-01-31T21:33:06;93750.28;;;1.22;72.83
42335;BME280;27986;42.700;24.178;2023-01-31T21:35:31;93740.47;;;1.12;71.05
42335;BME280;27986;42.700;24.178;2023-01-31T21:37:57;93753.31;;;1.33;71.51
42335;BME280;27986;42.700;24.178;2023-01-31T21:40:22;93732.94;;;1.36;71.09
42335;BME280;27986;42.700;24.178;2023-01-31T21:42:52;93738.69;;;1.57;70.97
42335;BME280;27986;42.700;24.178;2023-01-31T21:45:18;93739.09;;;1.40;70.63
42335;BME280;27986;42.700;24.178;2023-01-31T21:48:04;93738.19;;;1.34;69.77
42335;BME280;27986;42.700;24.178;2023-01-31T21:50:49;93750.00;;;1.20;70.74
42335;BME280;27986;42.700;24.178;2023-01-31T21:53:14;93728.69;;;1.26;70.73